sensor_id;sensor_type;location;lat;lon;timestamp;P1;durP1;ratioP1;P2;durP2;ratioP2
11646;SDS011;5880;52.342;9.662;2023-03-14T00:02:22;2.20;;;1.40;;
11646;SDS011;5880;52.342;9.662;2023-03-14T00:04:47;2.43;;;1.40;;
11646;SDS011;5880;52.342;9.662;2023-03-14T00:07:13;2.10;;;1.10;;
11646;SDS011;5880;52.342;9.662;2023-03-14T00:09:39;2.10;;;1.23;;
11646;SDS011;5880;52.342;9.662;2023-03-14T00:12:05;1.47;;;1.00;;
11646;SDS011;5880;52.342;9.662;2023-03-14T00:14:32;2.93;;;1.37;;
11646;SDS011;5880;52.342;9.662;2023-03-14T00:16:58;2.30;;;1.27;;
11646;SDS011;5880;52.342;9.662;2023-03-14T00:19:23;1.20;;;1.10;;
11646;SDS011;5880;52.342;9.662;2023-03-14T00:21:49;1.83;;;1.20;;
11646;SDS011;5880;52.342;9.662;2023-03-14T00:24:15;2.07;;;1.40;;
11646;SDS011;5880;52.342;9.662;2023-03-14T00:26:40;1.83;;;1.10;;
11646;SDS011;5880;52.342;9.662;2023-03-14T00:29:06;3.47;;;1.20;;
11646;SDS011;5880;52.342;9.662;2023-03-14T00:31:31;2.70;;;1.20;;
11646;SDS011;5880;52.342;9.662;2023-03-14T00:33:57;2.20;;;1.40;;
11646;SDS011;5880;52.342;9.662;2023-03-14T00:36:23;1.93;;;1.10;;
11646;SDS011;5880;52.342;9.662;2023-03-14T00:38:49;2.00;;;1.20;;
11646;SDS011;5880;52.342;9.662;2023-03-14T00:41:17;1.20;;;1.10;;
11646;SDS011;5880;52.342;9.662;2023-03-14T00:43:51;1.87;;;1.00;;
11646;SDS011;5880;52.342;9.662;2023-03-14T00:46:17;1.70;;;1.30;;
11646;SDS011;5880;52.342;9.662;2023-03-14T00:48:46;1.30;;;0.80;;
11646;SDS011;5880;52.342;9.662;2023-03-14T00:51:12;2.03;;;1.20;;
11646;SDS011;5880;52.342;9.662;2023-03-14T00:53:40;1.80;;;1.10;;
11646;SDS011;5880;52.342;9.662;2023-03-14T00:56:07;1.50;;;1.20;;
11646;SDS011;5880;52.342;9.662;2023-03-14T00:58:35;1.87;;;1.40;;
11646;SDS011;5880;52.342;9.662;2023-03-14T01:01:05;1.73;;;1.07;;
11646;SDS011;5880;52.342;9.662;2023-03-14T01:03:38;3.80;;;1.10;;
11646;SDS011;5880;52.342;9.662;2023-03-14T01:06:08;2.30;;;1.20;;
11646;SDS011;5880;52.342;9.662;2023-03-14T01:08:46;1.30;;;1.10;;
11646;SDS011;5880;52.342;9.662;2023-03-14T01:11:14;1.50;;;1.10;;
11646;SDS011;5880;52.342;9.662;2023-03-14T01:13:47;2.57;;;1.17;;
11646;SDS011;5880;52.342;9.662;2023-03-14T01:16:16;2.20;;;1.03;;
11646;SDS011;5880;52.342;9.662;2023-03-14T01:18:45;1.17;;;1.00;;
11646;SDS011;5880;52.342;9.662;2023-03-14T01:21:13;3.60;;;1.40;;
11646;SDS011;5880;52.342;9.662;2023-03-14T01:23:43;2.00;;;1.10;;
11646;SDS011;5880;52.342;9.662;2023-03-14T01:26:11;2.83;;;1.00;;
11646;SDS011;5880;52.342;9.662;2023-03-14T01:28:39;2.43;;;1.27;;
11646;SDS011;5880;52.342;9.662;2023-03-14T01:31:05;2.07;;;1.20;;
11646;SDS011;5880;52.342;9.662;2023-03-14T01:33:34;3.07;;;1.10;;
11646;SDS011;5880;52.342;9.662;2023-03-14T01:36:01;2.37;;;1.10;;
11646;SDS011;5880;52.342;9.662;2023-03-14T01:38:28;1.73;;;1.10;;
11646;SDS011;5880;52.342;9.662;2023-03-14T01:40:55;1.50;;;1.03;;
11646;SDS011;5880;52.342;9.662;2023-03-14T01:43:21;1.87;;;1.07;;
11646;SDS011;5880;52.342;9.662;2023-03-14T01:46:31;2.50;;;1.40;;
11646;SDS011;5880;52.342;9.662;2023-03-14T01:54:46;3.57;;;1.63;;
11646;SDS011;5880;52.342;9.662;2023-03-14T01:57:22;2.90;;;1.47;;
11646;SDS011;5880;52.342;9.662;2023-03-14T01:59:58;1.67;;;1.07;;
11646;SDS011;5880;52.342;9.662;2023-03-14T02:02:47;2.47;;;1.00;;
11646;SDS011;5880;52.342;9.662;2023-03-14T02:05:23;2.13;;;1.00;;
11646;SDS011;5880;52.342;9.662;2023-03-14T02:07:56;1.57;;;1.20;;
11646;SDS011;5880;52.342;9.662;2023-03-14T02:10:32;2.30;;;0.80;;
11646;SDS011;5880;52.342;9.662;2023-03-14T02:13:04;1.63;;;1.27;;
11646;SDS011;5880;52.342;9.662;2023-03-14T02:15:31;1.20;;;1.10;;
11646;SDS011;5880;52.342;9.662;2023-03-14T02:17:58;2.13;;;1.10;;
11646;SDS011;5880;52.342;9.662;2023-03-14T02:20:33;1.00;;;0.90;;
11646;SDS011;5880;52.342;9.662;2023-03-14T02:23:09;1.47;;;1.00;;
11646;SDS011;5880;52.342;9.662;2023-03-14T02:25:38;1.00;;;0.90;;
11646;SDS011;5880;52.342;9.662;2023-03-14T02:28:21;2.13;;;1.20;;
11646;SDS011;5880;52.342;9.662;2023-03-14T02:30:47;1.90;;;1.10;;
11646;SDS011;5880;52.342;9.662;2023-03-14T02:33:14;1.40;;;1.13;;
11646;SDS011;5880;52.342;9.662;2023-03-14T02:35:44;3.20;;;1.10;;
11646;SDS011;5880;52.342;9.662;2023-03-14T02:38:23;1.83;;;1.20;;
11646;SDS011;5880;52.342;9.662;2023-03-14T02:41:08;2.23;;;1.20;;
11646;SDS011;5880;52.342;9.662;2023-03-14T02:43:34;2.27;;;1.00;;
11646;SDS011;5880;52.342;9.662;2023-03-14T02:46:00;1.83;;;1.00;;
11646;SDS011;5880;52.342;9.662;2023-03-14T02:48:30;2.30;;;1.20;;
11646;SDS011;5880;52.342;9.662;2023-03-14T02:51:04;1.07;;;0.93;;
11646;SDS011;5880;52.342;9.662;2023-03-14T02:53:34;2.53;;;1.10;;
11646;SDS011;5880;52.342;9.662;2023-03-14T02:56:02;1.20;;;1.00;;
11646;SDS011;5880;52.342;9.662;2023-03-14T02:58:29;1.43;;;1.10;;
11646;SDS011;5880;52.342;9.662;2023-03-14T03:00:55;1.23;;;0.90;;
11646;SDS011;5880;52.342;9.662;2023-03-14T03:03:21;1.23;;;1.00;;
11646;SDS011;5880;52.342;9.662;2023-03-14T03:05:48;1.70;;;1.00;;
11646;SDS011;5880;52.342;9.662;2023-03-14T03:08:19;1.73;;;1.00;;
11646;SDS011;5880;52.342;9.662;2023-03-14T03:10:48;1.50;;;0.93;;
11646;SDS011;5880;52.342;9.662;2023-03-14T03:13:15;1.37;;;0.97;;
11646;SDS011;5880;52.342;9.662;2023-03-14T03:15:41;1.73;;;0.97;;
11646;SDS011;5880;52.342;9.662;2023-03-14T03:18:07;2.20;;;1.17;;
11646;SDS011;5880;52.342;9.662;2023-03-14T03:20:33;1.40;;;0.93;;
11646;SDS011;5880;52.342;9.662;2023-03-14T03:22:59;1.87;;;1.13;;
11646;SDS011;5880;52.342;9.662;2023-03-14T03:25:26;1.33;;;0.90;;
11646;SDS011;5880;52.342;9.662;2023-03-14T03:27:52;2.60;;;1.20;;
11646;SDS011;5880;52.342;9.662;2023-03-14T03:30:18;2.13;;;1.00;;
11646;SDS011;5880;52.342;9.662;2023-03-14T03:32:44;1.87;;;1.00;;
11646;SDS011;5880;52.342;9.662;2023-03-14T03:35:10;1.83;;;0.90;;
11646;SDS011;5880;52.342;9.662;2023-03-14T03:37:36;1.47;;;1.07;;
11646;SDS011;5880;52.342;9.662;2023-03-14T03:40:02;2.80;;;0.80;;
11646;SDS011;5880;52.342;9.662;2023-03-14T03:42:30;1.27;;;1.00;;
11646;SDS011;5880;52.342;9.662;2023-03-14T03:44:58;2.90;;;0.90;;
11646;SDS011;5880;52.342;9.662;2023-03-14T03:47:25;1.80;;;0.90;;
11646;SDS011;5880;52.342;9.662;2023-03-14T03:49:52;2.10;;;1.20;;
11646;SDS011;5880;52.342;9.662;2023-03-14T03:52:17;2.67;;;1.13;;
11646;SDS011;5880;52.342;9.662;2023-03-14T03:54:43;2.87;;;1.07;;
11646;SDS011;5880;52.342;9.662;2023-03-14T03:57:09;2.80;;;1.03;;
11646;SDS011;5880;52.342;9.662;2023-03-14T03:59:34;2.53;;;0.90;;
11646;SDS011;5880;52.342;9.662;2023-03-14T04:02:00;1.37;;;0.80;;
11646;SDS011;5880;52.342;9.662;2023-03-14T04:04:26;0.90;;;0.70;;
11646;SDS011;5880;52.342;9.662;2023-03-14T04:06:51;1.00;;;0.60;;
11646;SDS011;5880;52.342;9.662;2023-03-14T04:09:17;0.50;;;0.50;;
11646;SDS011;5880;52.342;9.662;2023-03-14T04:11:43;0.70;;;0.57;;
11646;SDS011;5880;52.342;9.662;2023-03-14T04:14:08;1.43;;;0.53;;
11646;SDS011;5880;52.342;9.662;2023-03-14T04:16:34;0.60;;;0.40;;
11646;SDS011;5880;52.342;9.662;2023-03-14T04:19:01;1.47;;;0.70;;
11646;SDS011;5880;52.342;9.662;2023-03-14T04:21:28;0.73;;;0.60;;
11646;SDS011;5880;52.342;9.662;2023-03-14T04:23:53;0.80;;;0.50;;
11646;SDS011;5880;52.342;9.662;2023-03-14T04:26:19;0.73;;;0.40;;
11646;SDS011;5880;52.342;9.662;2023-03-14T04:28:45;1.10;;;0.47;;
11646;SDS011;5880;52.342;9.662;2023-03-14T04:31:12;1.87;;;0.70;;
11646;SDS011;5880;52.342;9.662;2023-03-14T04:33:41;0.77;;;0.50;;
11646;SDS011;5880;52.342;9.662;2023-03-14T04:36:07;0.87;;;0.40;;
11646;SDS011;5880;52.342;9.662;2023-03-14T04:38:34;1.30;;;0.60;;
11646;SDS011;5880;52.342;9.662;2023-03-14T04:41:00;0.60;;;0.50;;
11646;SDS011;5880;52.342;9.662;2023-03-14T04:43:27;1.07;;;0.40;;
11646;SDS011;5880;52.342;9.662;2023-03-14T04:45:53;1.10;;;0.40;;
11646;SDS011;5880;52.342;9.662;2023-03-14T04:48:21;0.47;;;0.33;;
11646;SDS011;5880;52.342;9.662;2023-03-14T04:50:47;0.87;;;0.30;;
11646;SDS011;5880;52.342;9.662;2023-03-14T04:53:13;1.47;;;0.50;;
11646;SDS011;5880;52.342;9.662;2023-03-14T04:55:40;1.43;;;0.33;;
11646;SDS011;5880;52.342;9.662;2023-03-14T04:58:06;0.77;;;0.40;;
11646;SDS011;5880;52.342;9.662;2023-03-14T05:00:32;2.33;;;0.50;;
11646;SDS011;5880;52.342;9.662;2023-03-14T05:02:58;1.97;;;0.67;;
11646;SDS011;5880;52.342;9.662;2023-03-14T05:05:23;0.53;;;0.50;;
11646;SDS011;5880;52.342;9.662;2023-03-14T05:07:49;0.97;;;0.47;;
11646;SDS011;5880;52.342;9.662;2023-03-14T05:10:15;1.30;;;0.50;;
11646;SDS011;5880;52.342;9.662;2023-03-14T05:12:41;0.40;;;0.40;;
11646;SDS011;5880;52.342;9.662;2023-03-14T05:15:07;1.20;;;0.47;;
11646;SDS011;5880;52.342;9.662;2023-03-14T05:17:34;1.20;;;0.70;;
11646;SDS011;5880;52.342;9.662;2023-03-14T05:20:02;1.20;;;0.43;;
11646;SDS011;5880;52.342;9.662;2023-03-14T05:22:35;1.50;;;0.60;;
11646;SDS011;5880;52.342;9.662;2023-03-14T05:25:00;1.00;;;0.70;;
11646;SDS011;5880;52.342;9.662;2023-03-14T05:27:26;2.27;;;0.63;;
11646;SDS011;5880;52.342;9.662;2023-03-14T05:29:52;1.43;;;0.80;;
11646;SDS011;5880;52.342;9.662;2023-03-14T05:32:17;1.10;;;0.60;;
11646;SDS011;5880;52.342;9.662;2023-03-14T05:34:43;1.30;;;0.80;;
11646;SDS011;5880;52.342;9.662;2023-03-14T05:37:08;1.17;;;0.70;;
11646;SDS011;5880;52.342;9.662;2023-03-14T05:39:34;1.63;;;0.70;;
11646;SDS011;5880;52.342;9.662;2023-03-14T05:42:00;1.03;;;0.70;;
11646;SDS011;5880;52.342;9.662;2023-03-14T05:44:25;1.97;;;0.77;;
11646;SDS011;5880;52.342;9.662;2023-03-14T05:46:51;1.47;;;0.90;;
11646;SDS011;5880;52.342;9.662;2023-03-14T05:49:17;2.37;;;0.80;;
11646;SDS011;5880;52.342;9.662;2023-03-14T05:51:42;2.77;;;1.00;;
11646;SDS011;5880;52.342;9.662;2023-03-14T05:54:08;1.47;;;0.80;;
11646;SDS011;5880;52.342;9.662;2023-03-14T05:56:34;2.77;;;1.07;;
11646;SDS011;5880;52.342;9.662;2023-03-14T05:58:59;2.40;;;0.90;;
11646;SDS011;5880;52.342;9.662;2023-03-14T06:01:27;1.97;;;0.77;;
11646;SDS011;5880;52.342;9.662;2023-03-14T06:03:54;1.40;;;0.77;;
11646;SDS011;5880;52.342;9.662;2023-03-14T06:06:20;1.17;;;1.00;;
11646;SDS011;5880;52.342;9.662;2023-03-14T06:08:46;1.67;;;0.97;;
11646;SDS011;5880;52.342;9.662;2023-03-14T06:11:11;1.87;;;1.10;;
11646;SDS011;5880;52.342;9.662;2023-03-14T06:13:37;1.83;;;0.90;;
11646;SDS011;5880;52.342;9.662;2023-03-14T06:16:03;1.60;;;0.77;;
11646;SDS011;5880;52.342;9.662;2023-03-14T06:18:29;1.73;;;0.80;;
11646;SDS011;5880;52.342;9.662;2023-03-14T06:20:55;2.40;;;0.90;;
11646;SDS011;5880;52.342;9.662;2023-03-14T06:23:21;2.50;;;0.90;;
11646;SDS011;5880;52.342;9.662;2023-03-14T06:25:48;2.07;;;0.90;;
11646;SDS011;5880;52.342;9.662;2023-03-14T06:28:13;1.03;;;0.70;;
11646;SDS011;5880;52.342;9.662;2023-03-14T06:30:40;1.43;;;0.73;;
11646;SDS011;5880;52.342;9.662;2023-03-14T06:33:06;2.33;;;1.00;;
11646;SDS011;5880;52.342;9.662;2023-03-14T06:35:32;2.57;;;0.90;;
11646;SDS011;5880;52.342;9.662;2023-03-14T06:37:58;1.80;;;0.80;;
11646;SDS011;5880;52.342;9.662;2023-03-14T06:40:23;2.23;;;0.90;;
11646;SDS011;5880;52.342;9.662;2023-03-14T06:42:49;2.50;;;0.90;;
11646;SDS011;5880;52.342;9.662;2023-03-14T06:45:15;1.60;;;0.70;;
11646;SDS011;5880;52.342;9.662;2023-03-14T06:47:41;1.20;;;0.60;;
11646;SDS011;5880;52.342;9.662;2023-03-14T06:50:07;1.23;;;0.60;;
11646;SDS011;5880;52.342;9.662;2023-03-14T06:52:34;0.53;;;0.53;;
11646;SDS011;5880;52.342;9.662;2023-03-14T06:55:00;1.47;;;0.33;;
11646;SDS011;5880;52.342;9.662;2023-03-14T06:57:26;0.57;;;0.40;;
11646;SDS011;5880;52.342;9.662;2023-03-14T06:59:52;0.87;;;0.37;;
11646;SDS011;5880;52.342;9.662;2023-03-14T07:02:18;1.43;;;0.50;;
11646;SDS011;5880;52.342;9.662;2023-03-14T07:04:43;0.90;;;0.50;;
11646;SDS011;5880;52.342;9.662;2023-03-14T07:07:09;1.13;;;0.60;;
11646;SDS011;5880;52.342;9.662;2023-03-14T07:09:35;0.57;;;0.50;;
11646;SDS011;5880;52.342;9.662;2023-03-14T07:12:01;0.60;;;0.40;;
11646;SDS011;5880;52.342;9.662;2023-03-14T07:14:29;1.87;;;0.60;;
11646;SDS011;5880;52.342;9.662;2023-03-14T07:16:55;0.47;;;0.30;;
11646;SDS011;5880;52.342;9.662;2023-03-14T07:19:20;0.40;;;0.30;;
11646;SDS011;5880;52.342;9.662;2023-03-14T07:21:46;0.33;;;0.30;;
11646;SDS011;5880;52.342;9.662;2023-03-14T07:24:12;0.70;;;0.40;;
11646;SDS011;5880;52.342;9.662;2023-03-14T07:26:38;0.53;;;0.30;;
11646;SDS011;5880;52.342;9.662;2023-03-14T07:29:03;1.17;;;0.53;;
11646;SDS011;5880;52.342;9.662;2023-03-14T07:31:29;0.27;;;0.20;;
11646;SDS011;5880;52.342;9.662;2023-03-14T07:33:55;1.37;;;0.40;;
11646;SDS011;5880;52.342;9.662;2023-03-14T07:36:21;0.67;;;0.30;;
11646;SDS011;5880;52.342;9.662;2023-03-14T07:38:46;1.67;;;0.40;;
11646;SDS011;5880;52.342;9.662;2023-03-14T07:41:12;0.83;;;0.20;;
11646;SDS011;5880;52.342;9.662;2023-03-14T07:43:38;0.30;;;0.20;;
11646;SDS011;5880;52.342;9.662;2023-03-14T07:46:04;0.40;;;0.30;;
11646;SDS011;5880;52.342;9.662;2023-03-14T07:48:30;0.37;;;0.20;;
11646;SDS011;5880;52.342;9.662;2023-03-14T07:50:56;0.53;;;0.30;;
11646;SDS011;5880;52.342;9.662;2023-03-14T07:53:22;0.60;;;0.57;;
11646;SDS011;5880;52.342;9.662;2023-03-14T07:55:52;0.60;;;0.17;;
11646;SDS011;5880;52.342;9.662;2023-03-14T07:58:19;0.27;;;0.20;;
11646;SDS011;5880;52.342;9.662;2023-03-14T08:00:46;0.77;;;0.40;;
11646;SDS011;5880;52.342;9.662;2023-03-14T08:03:13;0.30;;;0.20;;
11646;SDS011;5880;52.342;9.662;2023-03-14T08:05:39;0.63;;;0.20;;
11646;SDS011;5880;52.342;9.662;2023-03-14T08:08:05;1.80;;;0.30;;
11646;SDS011;5880;52.342;9.662;2023-03-14T08:10:31;0.43;;;0.30;;
11646;SDS011;5880;52.342;9.662;2023-03-14T08:12:58;0.17;;;0.17;;
11646;SDS011;5880;52.342;9.662;2023-03-14T08:15:26;0.97;;;0.13;;
11646;SDS011;5880;52.342;9.662;2023-03-14T08:17:54;0.20;;;0.17;;
11646;SDS011;5880;52.342;9.662;2023-03-14T08:20:20;0.27;;;0.20;;
11646;SDS011;5880;52.342;9.662;2023-03-14T08:22:50;0.23;;;0.17;;
11646;SDS011;5880;52.342;9.662;2023-03-14T08:25:16;0.43;;;0.30;;
11646;SDS011;5880;52.342;9.662;2023-03-14T08:27:42;1.07;;;0.20;;
11646;SDS011;5880;52.342;9.662;2023-03-14T08:30:12;0.40;;;0.37;;
11646;SDS011;5880;52.342;9.662;2023-03-14T08:32:43;0.20;;;0.20;;
11646;SDS011;5880;52.342;9.662;2023-03-14T08:35:09;0.33;;;0.20;;
11646;SDS011;5880;52.342;9.662;2023-03-14T08:37:37;0.83;;;0.20;;
11646;SDS011;5880;52.342;9.662;2023-03-14T08:40:03;0.30;;;0.30;;
11646;SDS011;5880;52.342;9.662;2023-03-14T08:42:35;0.10;;;0.10;;
11646;SDS011;5880;52.342;9.662;2023-03-14T08:45:02;0.10;;;0.10;;
11646;SDS011;5880;52.342;9.662;2023-03-14T08:47:29;0.20;;;0.20;;
11646;SDS011;5880;52.342;9.662;2023-03-14T08:49:55;0.40;;;0.20;;
11646;SDS011;5880;52.342;9.662;2023-03-14T08:52:21;0.40;;;0.40;;
11646;SDS011;5880;52.342;9.662;2023-03-14T08:54:47;0.20;;;0.20;;
11646;SDS011;5880;52.342;9.662;2023-03-14T08:57:13;1.47;;;0.33;;
11646;SDS011;5880;52.342;9.662;2023-03-14T08:59:39;0.30;;;0.30;;
11646;SDS011;5880;52.342;9.662;2023-03-14T09:02:05;1.67;;;0.40;;
11646;SDS011;5880;52.342;9.662;2023-03-14T09:04:30;0.83;;;0.40;;
11646;SDS011;5880;52.342;9.662;2023-03-14T09:06:58;1.70;;;0.33;;
11646;SDS011;5880;52.342;9.662;2023-03-14T09:09:25;0.73;;;0.40;;
11646;SDS011;5880;52.342;9.662;2023-03-14T09:11:55;1.00;;;0.40;;
11646;SDS011;5880;52.342;9.662;2023-03-14T09:14:21;0.77;;;0.43;;
11646;SDS011;5880;52.342;9.662;2023-03-14T09:16:48;1.93;;;0.53;;
11646;SDS011;5880;52.342;9.662;2023-03-14T09:19:14;1.53;;;0.73;;
11646;SDS011;5880;52.342;9.662;2023-03-14T09:21:39;1.03;;;0.50;;
11646;SDS011;5880;52.342;9.662;2023-03-14T09:24:05;0.80;;;0.50;;
11646;SDS011;5880;52.342;9.662;2023-03-14T09:26:31;0.80;;;0.50;;
11646;SDS011;5880;52.342;9.662;2023-03-14T09:28:57;1.33;;;0.50;;
11646;SDS011;5880;52.342;9.662;2023-03-14T09:31:22;0.47;;;0.30;;
11646;SDS011;5880;52.342;9.662;2023-03-14T09:33:48;0.50;;;0.40;;
11646;SDS011;5880;52.342;9.662;2023-03-14T09:36:14;0.40;;;0.40;;
11646;SDS011;5880;52.342;9.662;2023-03-14T09:38:40;1.30;;;0.40;;
11646;SDS011;5880;52.342;9.662;2023-03-14T09:41:12;0.60;;;0.50;;
11646;SDS011;5880;52.342;9.662;2023-03-14T09:43:46;0.63;;;0.40;;
11646;SDS011;5880;52.342;9.662;2023-03-14T09:46:15;0.50;;;0.50;;
11646;SDS011;5880;52.342;9.662;2023-03-14T09:48:42;0.53;;;0.33;;
11646;SDS011;5880;52.342;9.662;2023-03-14T09:51:13;0.30;;;0.30;;
11646;SDS011;5880;52.342;9.662;2023-03-14T09:53:47;1.25;;;0.60;;
11646;SDS011;5880;52.342;9.662;2023-03-14T09:56:27;0.82;;;0.47;;
11646;SDS011;5880;52.342;9.662;2023-03-14T09:59:00;0.70;;;0.50;;
11646;SDS011;5880;52.342;9.662;2023-03-14T10:01:30;0.80;;;0.70;;
11646;SDS011;5880;52.342;9.662;2023-03-14T10:04:02;0.50;;;0.50;;
11646;SDS011;5880;52.342;9.662;2023-03-14T10:06:38;0.50;;;0.50;;
11646;SDS011;5880;52.342;9.662;2023-03-14T10:09:04;1.00;;;0.73;;
11646;SDS011;5880;52.342;9.662;2023-03-14T10:11:30;0.73;;;0.63;;
11646;SDS011;5880;52.342;9.662;2023-03-14T10:16:43;0.65;;;0.60;;
11646;SDS011;5880;52.342;9.662;2023-03-14T10:19:12;0.60;;;0.60;;
11646;SDS011;5880;52.342;9.662;2023-03-14T10:21:41;0.40;;;0.40;;
11646;SDS011;5880;52.342;9.662;2023-03-14T10:24:22;0.50;;;0.50;;
11646;SDS011;5880;52.342;9.662;2023-03-14T10:26:57;1.48;;;0.70;;
11646;SDS011;5880;52.342;9.662;2023-03-14T10:29:26;1.05;;;0.70;;
11646;SDS011;5880;52.342;9.662;2023-03-14T10:31:53;0.65;;;0.65;;
11646;SDS011;5880;52.342;9.662;2023-03-14T10:34:30;0.70;;;0.70;;
11646;SDS011;5880;52.342;9.662;2023-03-14T10:37:16;0.65;;;0.65;;
11646;SDS011;5880;52.342;9.662;2023-03-14T10:40:12;0.57;;;0.57;;
11646;SDS011;5880;52.342;9.662;2023-03-14T10:42:39;1.07;;;0.70;;
11646;SDS011;5880;52.342;9.662;2023-03-14T10:48:21;1.47;;;0.90;;
11646;SDS011;5880;52.342;9.662;2023-03-14T10:53:56;0.90;;;0.90;;
11646;SDS011;5880;52.342;9.662;2023-03-14T10:56:23;1.10;;;1.00;;
11646;SDS011;5880;52.342;9.662;2023-03-14T10:58:51;1.40;;;1.07;;
11646;SDS011;5880;52.342;9.662;2023-03-14T11:04:24;1.73;;;1.00;;
11646;SDS011;5880;52.342;9.662;2023-03-14T11:15:56;1.70;;;1.60;;
11646;SDS011;5880;52.342;9.662;2023-03-14T11:27:55;0.40;;;0.40;;
11646;SDS011;5880;52.342;9.662;2023-03-14T11:30:55;0.83;;;0.40;;
11646;SDS011;5880;52.342;9.662;2023-03-14T11:37:04;0.60;;;0.30;;
11646;SDS011;5880;52.342;9.662;2023-03-14T11:39:39;0.50;;;0.30;;
11646;SDS011;5880;52.342;9.662;2023-03-14T11:42:12;0.80;;;0.43;;
11646;SDS011;5880;52.342;9.662;2023-03-14T11:44:43;0.40;;;0.40;;
11646;SDS011;5880;52.342;9.662;2023-03-14T11:47:20;0.40;;;0.40;;
11646;SDS011;5880;52.342;9.662;2023-03-14T11:50:04;0.50;;;0.50;;
11646;SDS011;5880;52.342;9.662;2023-03-14T11:52:44;1.17;;;0.70;;
11646;SDS011;5880;52.342;9.662;2023-03-14T11:55:50;0.77;;;0.73;;
11646;SDS011;5880;52.342;9.662;2023-03-14T11:58:31;0.90;;;0.90;;
11646;SDS011;5880;52.342;9.662;2023-03-14T12:01:08;0.63;;;0.60;;
11646;SDS011;5880;52.342;9.662;2023-03-14T12:03:41;0.83;;;0.40;;
11646;SDS011;5880;52.342;9.662;2023-03-14T12:09:19;0.20;;;0.20;;
11646;SDS011;5880;52.342;9.662;2023-03-14T12:11:56;0.10;;;0.10;;
11646;SDS011;5880;52.342;9.662;2023-03-14T12:16:56;0.83;;;0.10;;
11646;SDS011;5880;52.342;9.662;2023-03-14T12:19:31;1.20;;;0.20;;
11646;SDS011;5880;52.342;9.662;2023-03-14T12:22:08;0.50;;;0.20;;
11646;SDS011;5880;52.342;9.662;2023-03-14T12:24:38;0.23;;;0.10;;
11646;SDS011;5880;52.342;9.662;2023-03-14T12:27:37;0.23;;;0.20;;
11646;SDS011;5880;52.342;9.662;2023-03-14T12:30:28;0.30;;;0.20;;
11646;SDS011;5880;52.342;9.662;2023-03-14T12:38:16;0.50;;;0.20;;
11646;SDS011;5880;52.342;9.662;2023-03-14T12:41:14;0.33;;;0.30;;
11646;SDS011;5880;52.342;9.662;2023-03-14T12:43:54;0.97;;;0.30;;
11646;SDS011;5880;52.342;9.662;2023-03-14T12:46:26;0.20;;;0.20;;
11646;SDS011;5880;52.342;9.662;2023-03-14T12:48:57;0.17;;;0.10;;
11646;SDS011;5880;52.342;9.662;2023-03-14T12:51:36;1.20;;;0.40;;
11646;SDS011;5880;52.342;9.662;2023-03-14T12:54:13;0.67;;;0.40;;
11646;SDS011;5880;52.342;9.662;2023-03-14T12:57:15;0.50;;;0.50;;
11646;SDS011;5880;52.342;9.662;2023-03-14T12:59:58;1.37;;;0.50;;
11646;SDS011;5880;52.342;9.662;2023-03-14T13:02:48;0.50;;;0.40;;
11646;SDS011;5880;52.342;9.662;2023-03-14T13:05:19;0.97;;;0.70;;
11646;SDS011;5880;52.342;9.662;2023-03-14T13:10:22;0.83;;;0.40;;
11646;SDS011;5880;52.342;9.662;2023-03-14T13:13:02;2.10;;;0.70;;
11646;SDS011;5880;52.342;9.662;2023-03-14T13:15:43;1.57;;;0.73;;
11646;SDS011;5880;52.342;9.662;2023-03-14T13:18:13;2.87;;;1.40;;
11646;SDS011;5880;52.342;9.662;2023-03-14T13:20:54;2.47;;;0.90;;
11646;SDS011;5880;52.342;9.662;2023-03-14T13:23:30;2.33;;;0.70;;
11646;SDS011;5880;52.342;9.662;2023-03-14T13:25:59;2.83;;;0.77;;
11646;SDS011;5880;52.342;9.662;2023-03-14T13:28:26;2.77;;;0.90;;
11646;SDS011;5880;52.342;9.662;2023-03-14T13:30:56;3.17;;;0.90;;
11646;SDS011;5880;52.342;9.662;2023-03-14T13:33:25;3.57;;;1.00;;
11646;SDS011;5880;52.342;9.662;2023-03-14T13:35:56;3.67;;;1.20;;
11646;SDS011;5880;52.342;9.662;2023-03-14T13:38:28;3.23;;;0.90;;
11646;SDS011;5880;52.342;9.662;2023-03-14T13:40:57;5.50;;;1.13;;
11646;SDS011;5880;52.342;9.662;2023-03-14T13:46:07;1.83;;;0.70;;
11646;SDS011;5880;52.342;9.662;2023-03-14T13:48:47;3.40;;;0.90;;
11646;SDS011;5880;52.342;9.662;2023-03-14T13:51:18;1.77;;;0.83;;
11646;SDS011;5880;52.342;9.662;2023-03-14T13:53:47;2.77;;;1.03;;
11646;SDS011;5880;52.342;9.662;2023-03-14T13:56:17;3.90;;;1.30;;
11646;SDS011;5880;52.342;9.662;2023-03-14T13:58:45;3.60;;;1.60;;
11646;SDS011;5880;52.342;9.662;2023-03-14T14:04:01;2.33;;;1.23;;
11646;SDS011;5880;52.342;9.662;2023-03-14T14:06:39;3.70;;;1.17;;
11646;SDS011;5880;52.342;9.662;2023-03-14T14:09:27;5.27;;;1.50;;
11646;SDS011;5880;52.342;9.662;2023-03-14T14:15:04;6.43;;;2.10;;
11646;SDS011;5880;52.342;9.662;2023-03-14T14:17:51;5.43;;;1.80;;
11646;SDS011;5880;52.342;9.662;2023-03-14T14:20:23;4.70;;;1.70;;
11646;SDS011;5880;52.342;9.662;2023-03-14T14:23:00;4.93;;;1.87;;
11646;SDS011;5880;52.342;9.662;2023-03-14T14:25:28;4.93;;;2.03;;
11646;SDS011;5880;52.342;9.662;2023-03-14T14:27:55;7.00;;;2.10;;
11646;SDS011;5880;52.342;9.662;2023-03-14T14:30:30;4.23;;;1.63;;
11646;SDS011;5880;52.342;9.662;2023-03-14T14:33:18;8.63;;;2.53;;
11646;SDS011;5880;52.342;9.662;2023-03-14T14:35:53;7.67;;;1.83;;
11646;SDS011;5880;52.342;9.662;2023-03-14T14:38:25;4.73;;;1.80;;
11646;SDS011;5880;52.342;9.662;2023-03-14T14:40:54;6.47;;;2.07;;
11646;SDS011;5880;52.342;9.662;2023-03-14T14:43:26;5.90;;;1.60;;
11646;SDS011;5880;52.342;9.662;2023-03-14T14:45:59;5.10;;;1.60;;
11646;SDS011;5880;52.342;9.662;2023-03-14T14:48:26;6.67;;;1.63;;
11646;SDS011;5880;52.342;9.662;2023-03-14T14:50:58;3.17;;;1.43;;
11646;SDS011;5880;52.342;9.662;2023-03-14T14:53:31;7.97;;;1.93;;
11646;SDS011;5880;52.342;9.662;2023-03-14T14:56:07;4.27;;;1.60;;
11646;SDS011;5880;52.342;9.662;2023-03-14T14:58:47;6.57;;;2.30;;
11646;SDS011;5880;52.342;9.662;2023-03-14T15:01:17;8.13;;;1.60;;
11646;SDS011;5880;52.342;9.662;2023-03-14T15:03:49;4.27;;;1.50;;
11646;SDS011;5880;52.342;9.662;2023-03-14T15:06:17;6.33;;;1.57;;
11646;SDS011;5880;52.342;9.662;2023-03-14T15:08:45;4.53;;;1.47;;
11646;SDS011;5880;52.342;9.662;2023-03-14T15:11:18;6.70;;;1.83;;
11646;SDS011;5880;52.342;9.662;2023-03-14T15:13:47;5.53;;;1.40;;
11646;SDS011;5880;52.342;9.662;2023-03-14T15:16:27;4.77;;;1.60;;
11646;SDS011;5880;52.342;9.662;2023-03-14T15:18:55;3.93;;;1.33;;
11646;SDS011;5880;52.342;9.662;2023-03-14T15:21:30;5.77;;;1.57;;
11646;SDS011;5880;52.342;9.662;2023-03-14T15:23:56;8.53;;;1.60;;
11646;SDS011;5880;52.342;9.662;2023-03-14T15:26:22;3.80;;;1.57;;
11646;SDS011;5880;52.342;9.662;2023-03-14T15:28:51;3.67;;;1.50;;
11646;SDS011;5880;52.342;9.662;2023-03-14T15:31:19;4.20;;;1.37;;
11646;SDS011;5880;52.342;9.662;2023-03-14T15:33:48;6.37;;;1.70;;
11646;SDS011;5880;52.342;9.662;2023-03-14T15:36:21;4.13;;;1.20;;
11646;SDS011;5880;52.342;9.662;2023-03-14T15:38:53;6.23;;;1.20;;
11646;SDS011;5880;52.342;9.662;2023-03-14T15:41:20;4.57;;;1.47;;
11646;SDS011;5880;52.342;9.662;2023-03-14T15:43:48;4.33;;;1.20;;
11646;SDS011;5880;52.342;9.662;2023-03-14T15:46:14;3.13;;;1.10;;
11646;SDS011;5880;52.342;9.662;2023-03-14T15:48:42;3.53;;;1.10;;
11646;SDS011;5880;52.342;9.662;2023-03-14T15:51:09;1.97;;;1.20;;
11646;SDS011;5880;52.342;9.662;2023-03-14T15:53:34;4.23;;;1.17;;
11646;SDS011;5880;52.342;9.662;2023-03-14T15:56:04;6.63;;;1.50;;
11646;SDS011;5880;52.342;9.662;2023-03-14T15:58:31;6.20;;;1.63;;
11646;SDS011;5880;52.342;9.662;2023-03-14T16:00:58;5.17;;;1.13;;
11646;SDS011;5880;52.342;9.662;2023-03-14T16:03:26;6.23;;;1.30;;
11646;SDS011;5880;52.342;9.662;2023-03-14T16:05:53;4.00;;;1.03;;
11646;SDS011;5880;52.342;9.662;2023-03-14T16:08:20;3.23;;;1.10;;
11646;SDS011;5880;52.342;9.662;2023-03-14T16:10:48;3.10;;;1.20;;
11646;SDS011;5880;52.342;9.662;2023-03-14T16:13:13;5.87;;;1.40;;
11646;SDS011;5880;52.342;9.662;2023-03-14T16:15:40;4.50;;;1.40;;
11646;SDS011;5880;52.342;9.662;2023-03-14T16:18:05;3.03;;;1.10;;